Flight Track Log - Related Links

Times and Time Zones

All times are in EDT time to prevent confusion due to time zone crossing. See the LXJ262 flight status page for this flight to view local times or setup timezone preferences in your user account.

Time Position Orientation Groundspeed Altitude Reporting Facility
EDT Latitude Longitude Course Direction KTS MPH feet Rate Location/Type
Fri 10:01:03 AM 35.8561 -78.8108 223° Southwest 172 198 1,500  Level Washington Center
Fri 10:01:40 AM 35.8367 -78.8331 223° Southwest 183 211 3,600 3,711 Climbing Washington Center
Fri 10:02:19 AM 35.8189 -78.8733 241° Southwest 213 245 6,200 3,879 Climbing Washington Center
Fri 10:03:19 AM 35.8167 -78.9528 268° West 235 270 10,000 3,350 Climbing Washington Center
Fri 10:04:19 AM 35.8394 -79.0408 288° West 259 298 12,900 2,600 Climbing Washington Center
Fri 10:05:19 AM 35.8850 -79.1222 305° West 282 325 15,200 2,500 Climbing Washington Center
Fri 10:06:19 AM 35.9442 -79.2328 303° West 328 377 17,900 2,406 Climbing Washington Center
Fri 10:08:41 AM 35.9281 -79.4922 266° West 337 388 23,300 2,079 Climbing Atlanta Center
Fri 10:09:41 AM 35.9028 -79.5986 254° West 344 396 24,900 1,750 Climbing Atlanta Center
Fri 10:10:41 AM 35.8656 -79.7186 249° West 344 396 26,800 1,700 Climbing Atlanta Center
Fri 10:11:41 AM 35.8300 -79.8408 250° West 363 418 28,300 1,500 Climbing Atlanta Center
Fri 10:12:41 AM 35.7942 -79.9528 248° West 387 445 29,800 1,650 Climbing Atlanta Center
Fri 10:13:41 AM 35.7608 -80.0797 252° West 393 452 31,600 1,850 Climbing Atlanta Center
Fri 10:14:41 AM 35.7775 -80.2122 279° West 398 458 33,500 1,785 Climbing Atlanta Center
Fri 10:15:42 AM 35.8317 -80.3453 297° West 408 470 35,200 1,750 Climbing Atlanta Center
Fri 10:16:41 AM 35.8794 -80.4817 293° West 408 470 37,000 908 Climbing Atlanta Center
Fri 10:17:41 AM 35.9247 -80.6053 294° West 402 463 37,000  Level Atlanta Center
Fri 10:18:41 AM 35.9656 -80.7267 293° West 384 442 37,000  Level Atlanta Center
Fri 10:19:41 AM 36.0083 -80.8456 294° West 384 442 37,000  Level Atlanta Center
Fri 10:20:41 AM 36.0511 -80.9672 294° West 389 448 37,000 350 Level Atlanta Center
Fri 10:21:41 AM 36.0894 -81.0864 292° West 389 448 37,700 500 Climbing Atlanta Center
Fri 10:22:41 AM 36.1258 -81.2086 290° West 384 442 38,000 150 Climbing Atlanta Center
Fri 10:23:41 AM 36.1617 -81.3256 291° West 379 436 38,000  Level Atlanta Center
Fri 10:24:41 AM 36.1956 -81.4428 290° West 367 422 38,000  Level Atlanta Center
Fri 10:25:41 AM 36.2333 -81.5572 292° West 359 413 38,000  Level Atlanta Center
Fri 10:26:41 AM 36.2650 -81.6747 289° West 367 422 38,000  Level Atlanta Center
Fri 10:27:41 AM 36.3025 -81.7897 292° West 367 422 38,000  Level Atlanta Center
Fri 10:28:41 AM 36.3336 -81.8944 290° West 367 422 38,000  Level Atlanta Center
Fri 10:29:41 AM 36.3628 -82.0122 287° West 362 417 38,000  Level Atlanta Center
Fri 10:30:42 AM 36.3981 -82.1275 291° West 362 417 38,000  Level Atlanta Center
Fri 10:31:41 AM 36.4308 -82.2403 290° West 357 411 38,000  Level Atlanta Center
Fri 10:33:18 AM 36.4881 -82.4361 290° West 358 412 38,000  Level Indianapolis Center
Fri 10:34:19 AM 36.5225 -82.5567 290° West 367 422 38,000  Level Indianapolis Center
Fri 10:35:21 AM 36.5569 -82.6747 290° West 363 418 38,000  Level Indianapolis Center
Fri 10:36:23 AM 36.5908 -82.7928 290° West 359 413 38,000  Level Indianapolis Center
Fri 10:37:25 AM 36.6236 -82.9108 289° West 359 413 38,000  Level Indianapolis Center
Fri 10:38:27 AM 36.6575 -83.0294 290° West 359 413 38,000  Level Indianapolis Center
Fri 10:39:29 AM 36.6967 -83.1683 289° West 360 414 38,000  Level Indianapolis Center
Fri 10:40:30 AM 36.7308 -83.2878 290° West 361 415 38,000  Level Indianapolis Center
Fri 10:41:32 AM 36.7644 -83.4072 289° West 362 417 38,000  Level Indianapolis Center
Fri 10:42:34 AM 36.7978 -83.5256 289° West 361 415 38,000  Level Indianapolis Center
Fri 10:43:36 AM 36.8308 -83.6447 289° West 362 417 38,000  Level Indianapolis Center
Fri 10:44:38 AM 36.8636 -83.7628 289° West 360 414 38,000  Level Indianapolis Center
Fri 10:45:52 AM 36.9078 -83.9206 289° West 361 415 38,000  Level Indianapolis Center
Fri 10:46:54 AM 36.9397 -84.0378 289° West 357 411 38,000  Level Indianapolis Center
Fri 10:47:55 AM 36.9708 -84.1531 289° West 351 404 38,000  Level Indianapolis Center
Fri 10:48:57 AM 37.0014 -84.2661 289° West 345 397 38,000  Level Indianapolis Center
Fri 10:49:59 AM 37.0322 -84.3811 289° West 347 399 38,000  Level Indianapolis Center
Fri 10:51:01 AM 37.0636 -84.4972 289° West 350 403 38,000  Level Indianapolis Center
Fri 10:52:02 AM 37.1003 -84.6325 289° West 352 405 38,000  Level Indianapolis Center
Fri 10:53:04 AM 37.1306 -84.7497 288° West 354 407 38,000  Level Indianapolis Center
Fri 10:54:06 AM 37.1625 -84.8692 289° West 361 415 38,000  Level Indianapolis Center
Fri 10:55:08 AM 37.1942 -84.9919 288° West 367 422 38,000  Level Indianapolis Center
Fri 10:56:09 AM 37.2267 -85.1144 288° West 371 427 38,000  Level Indianapolis Center
Fri 10:57:11 AM 37.2586 -85.2375 288° West 372 428 38,000  Level Indianapolis Center
Fri 10:58:12 AM 37.2908 -85.3611 288° West 372 428 38,000  Level Indianapolis Center
Fri 10:59:14 AM 37.3283 -85.5056 288° West 372 428 38,000  Level Indianapolis Center
Fri 11:00:16 AM 37.3603 -85.6269 288° West 373 429 38,000  Level Indianapolis Center
Fri 11:01:17 AM 37.3925 -85.7508 288° West 372 428 38,000  Level Indianapolis Center
Fri 11:02:19 AM 37.4208 -85.8683 287° West 378 435 38,000  Level Indianapolis Center
Fri 11:03:21 AM 37.4597 -86.0214 288° West 390 449 38,000  Level Indianapolis Center
Fri 11:04:22 AM 37.4936 -86.1536 288° West 393 452 38,000  Level Indianapolis Center
Fri 11:05:24 AM 37.5272 -86.2869 288° West 396 456 38,000  Level Indianapolis Center
Fri 11:06:26 AM 37.5600 -86.4175 288° West 391 450 38,000  Level Indianapolis Center
Fri 11:07:27 AM 37.5897 -86.5372 287° West 390 449 38,000  Level Indianapolis Center
Fri 11:08:29 AM 37.6217 -86.6675 287° West 388 447 38,000  Level Indianapolis Center
Fri 11:09:30 AM 37.6600 -86.8244 287° West 386 444 38,000  Level Indianapolis Center
Fri 11:10:32 AM 37.6919 -86.9536 287° West 383 441 38,000  Level Indianapolis Center
Fri 11:11:34 AM 37.7228 -87.0831 287° West 381 438 38,000  Level Indianapolis Center
Fri 11:12:35 AM 37.7533 -87.2131 287° West 382 440 38,000  Level Indianapolis Center
Fri 11:13:37 AM 37.7864 -87.3492 287° West 383 441 38,000  Level Indianapolis Center
Fri 11:14:39 AM 37.8161 -87.4747 287° West 388 447 38,000  Level Indianapolis Center
Fri 11:15:40 AM 37.8469 -87.6039 287° West 383 441 38,000  Level Indianapolis Center
Fri 11:16:42 AM 37.8778 -87.7342 287° West 384 442 38,000  Level Indianapolis Center
Fri 11:17:44 AM 37.9086 -87.8669 286° West 387 445 38,000  Level Indianapolis Center
Fri 11:18:42 AM 37.9386 -87.9997 286° West 391 450 38,000  Level Kansas City Center
Fri 11:19:43 AM 37.9711 -88.1333 287° West 394 453 38,000  Level Kansas City Center
Fri 11:20:44 AM 38.0008 -88.2672 286° West 394 453 38,000  Level Kansas City Center
Fri 11:21:48 AM 38.0328 -88.4033 287° West 397 457 38,000  Level Kansas City Center
Fri 11:22:49 AM 38.0633 -88.5394 286° West 400 460 38,000  Level Kansas City Center
Fri 11:23:50 AM 38.0953 -88.6739 287° West 398 458 38,000  Level Kansas City Center
Fri 11:24:53 AM 38.1289 -88.8253 286° West 397 457 38,000  Level Kansas City Center
Fri 11:25:56 AM 38.1594 -88.9600 286° West 397 457 38,000  Level Kansas City Center
Fri 11:26:57 AM 38.1889 -89.0964 285° West 400 460 38,000  Level Kansas City Center
Fri 11:27:58 AM 38.2200 -89.2317 286° West 400 460 38,000  Level Kansas City Center
Fri 11:29:02 AM 38.2542 -89.3958 285° West 400 460 38,000  Level Kansas City Center
Fri 11:30:02 AM 38.2839 -89.5333 285° West 402 463 38,000  Level Kansas City Center
Fri 11:31:06 AM 38.3131 -89.6700 285° West 401 461 38,000  Level Kansas City Center
Fri 11:32:07 AM 38.3428 -89.8058 286° West 400 460 38,000  Level Kansas City Center
Fri 11:33:08 AM 38.3722 -89.9411 286° West 397 457 38,000  Level Kansas City Center
Fri 11:34:12 AM 38.4017 -90.0764 286° West 394 453 38,000  Level Kansas City Center
Fri 11:35:13 AM 38.4306 -90.2131 285° West 397 457 38,000  Level Kansas City Center
Fri 11:36:16 AM 38.4625 -90.3675 285° West 398 458 38,000  Level Kansas City Center
Fri 11:37:18 AM 38.4911 -90.5069 285° West 404 465 38,000  Level Kansas City Center
Fri 11:38:18 AM 38.5200 -90.6450 285° West 402 463 38,000  Level Kansas City Center
Fri 11:39:23 AM 38.5436 -90.8003 281° West 404 465 38,000  Level Kansas City Center
Fri 11:40:23 AM 38.5597 -90.9408 278° West 401 461 38,000  Level Kansas City Center
Fri 11:41:24 AM 38.5767 -91.0819 279° West 402 463 38,000  Level Kansas City Center
Fri 11:42:28 AM 38.5931 -91.2247 278° West 405 466 38,000  Level Kansas City Center
Fri 11:43:31 AM 38.6122 -91.3808 279° West 405 466 38,000  Level Kansas City Center
Fri 11:44:32 AM 38.6272 -91.5200 278° West 399 459 38,000  Level Kansas City Center
Fri 11:45:35 AM 38.6428 -91.6575 278° West 393 452 38,000  Level Kansas City Center
Fri 11:46:37 AM 38.6594 -91.8228 277° West 391 450 38,000  Level Kansas City Center
Fri 11:47:37 AM 38.6736 -91.9628 277° West 394 453 38,000  Level Kansas City Center
Fri 11:48:40 AM 38.6889 -92.1025 278° West 396 456 38,000  Level Kansas City Center
Fri 11:49:41 AM 38.7033 -92.2411 278° West 394 453 38,000  Level Kansas City Center
Fri 11:50:44 AM 38.7175 -92.3794 278° West 393 452 38,000  Level Kansas City Center
Fri 11:51:45 AM 38.7311 -92.5158 277° West 389 448 38,000  Level Kansas City Center
Fri 11:52:49 AM 38.7481 -92.6828 277° West 391 450 38,000  Level Kansas City Center
Fri 11:53:50 AM 38.7619 -92.8233 277° West 394 453 38,000  Level Kansas City Center
Fri 11:54:53 AM 38.7758 -92.9625 277° West 395 455 38,000  Level Kansas City Center
Fri 11:55:54 AM 38.7897 -93.1047 277° West 397 457 38,000  Level Kansas City Center
Fri 11:56:55 AM 38.8033 -93.2475 277° West 400 460 38,000  Level Kansas City Center
Fri 11:57:59 AM 38.8164 -93.3900 277° West 402 463 38,000  Level Kansas City Center
Fri 11:59:00 AM 38.8297 -93.5322 277° West 402 463 38,000  Level Kansas City Center
Fri 12:00:01 PM 38.8450 -93.7050 277° West 405 466 38,000  Level Kansas City Center
Fri 12:01:04 PM 38.8578 -93.8294 278° West 402 463 38,000  Level Kansas City Center
Fri 12:02:05 PM 38.8725 -93.9886 277° West 403 464 38,000  Level Kansas City Center
Fri 12:03:09 PM 38.8844 -94.1264 276° West 404 465 38,000  Level Kansas City Center
Fri 12:04:09 PM 38.8983 -94.2869 276° West 404 465 38,000  Level Kansas City Center
Fri 12:05:14 PM 38.9106 -94.4253 277° West 407 468 38,000  Level Kansas City Center
Fri 12:06:14 PM 38.9250 -94.5842 277° West 403 464 38,000  Level Kansas City Center
Fri 12:07:16 PM 38.9358 -94.7208 276° West 402 463 38,000  Level Kansas City Center
Fri 12:08:17 PM 38.9489 -94.8806 276° West 401 461 38,000  Level Kansas City Center
Fri 12:09:20 PM 38.9600 -95.0169 276° West 400 460 38,000  Level Kansas City Center
Fri 12:10:24 PM 38.9733 -95.1758 276° West 397 457 38,000  Level Kansas City Center
Fri 12:11:24 PM 38.9828 -95.3128 275° West 398 458 38,000  Level Kansas City Center
Fri 12:12:26 PM 38.9928 -95.4506 275° West 399 459 38,000  Level Kansas City Center
Fri 12:13:27 PM 39.0058 -95.6131 276° West 406 467 38,000  Level Kansas City Center
Fri 12:15:00 PM 39.0450 -95.8165 284° West  Level FlightAware Approximate
Fri 12:15:31 PM 39.0281 -95.9186 284° West 413 475 38,000  Level Kansas City Center
Fri 12:16:35 PM 39.0375 -96.0544 275° West 400 460 38,000 144 Level Kansas City Center
Fri 12:17:36 PM 39.0483 -96.2128 275° West 397 457 38,300 634 Climbing Kansas City Center
Fri 12:18:38 PM 39.0578 -96.3478 275° West 397 457 39,300 816 Climbing Kansas City Center
Fri 12:19:41 PM 39.0678 -96.4803 276° West 389 448 40,000 341 Climbing Kansas City Center
Fri 12:20:41 PM 39.0753 -96.6358 274° West 390 449 40,000  Level Kansas City Center
Fri 12:21:45 PM 39.0858 -96.7736 276° West 400 460 40,000  Level Kansas City Center
Fri 12:22:46 PM 39.0950 -96.9317 274° West 399 459 40,000  Level Kansas City Center
Fri 12:23:49 PM 39.1039 -97.0675 275° West 398 458 40,000  Level Kansas City Center
Fri 12:24:51 PM 39.1158 -97.2261 276° West 397 457 40,000  Level Kansas City Center
Fri 12:25:51 PM 39.1236 -97.3622 274° West 396 456 40,000  Level Kansas City Center
Fri 12:26:55 PM 39.1331 -97.5203 274° West 397 457 40,000  Level Kansas City Center
Fri 12:27:55 PM 39.1414 -97.6567 275° West 398 458 40,000  Level Kansas City Center
Fri 12:28:59 PM 39.1497 -97.8161 274° West 399 459 40,000  Level Kansas City Center
Fri 12:30:00 PM 39.1558 -97.9506 273° West 403 464 40,000  Level Kansas City Center
Fri 12:31:03 PM 39.1650 -98.0931 275° West 401 461 40,000  Level Kansas City Center
Fri 12:32:04 PM 39.1717 -98.2353 274° West 401 461 40,000  Level Kansas City Center
Fri 12:33:05 PM 39.1803 -98.3800 274° West 406 467 40,000  Level Kansas City Center
Fri 12:33:49 PM 39.1861 -98.5106 273° West 405 466 40,000  Level Denver Center
Fri 12:34:52 PM 39.1933 -98.6567 274° West 407 468 40,000  Level Denver Center
Fri 12:35:54 PM 39.2003 -98.8025 274° West 407 468 40,000  Level Denver Center
Fri 12:36:56 PM 39.2069 -98.9489 273° West 408 470 40,000  Level Denver Center
Fri 12:37:58 PM 39.2144 -99.1158 273° West 407 468 40,000  Level Denver Center
Fri 12:39:00 PM 39.2208 -99.2547 273° West 406 467 40,000  Level Denver Center
Fri 12:40:02 PM 39.2278 -99.4172 273° West 405 466 40,000  Level Denver Center
Fri 12:41:04 PM 39.2333 -99.5558 273° West 403 464 40,000  Level Denver Center
Fri 12:42:06 PM 39.2403 -99.7172 273° West 403 464 40,000  Level Denver Center
Fri 12:43:08 PM 39.2453 -99.8589 273° West 410 472 40,000  Level Denver Center
Fri 12:44:10 PM 39.2506 -99.9975 273° West 407 468 40,000  Level Denver Center
Fri 12:45:12 PM 39.2567 -100.1642 273° West 414 476 40,000  Level Denver Center
Fri 12:46:14 PM 39.2497 -100.3022 266° West 410 472 40,000  Level Denver Center
Fri 12:47:28 PM 39.2294 -100.4672 261° West 415 478 40,000  Level Denver Center
Fri 12:48:31 PM 39.2086 -100.6567 262° West 418 481 40,000  Level Denver Center
Fri 12:49:33 PM 39.1911 -100.7992 261° West 420 483 40,000  Level Denver Center
Fri 12:50:35 PM 39.1711 -100.9653 261° West 420 483 40,000  Level Denver Center
Fri 12:51:37 PM 39.1544 -101.1075 261° West 419 482 40,000  Level Denver Center
Fri 12:52:39 PM 39.1364 -101.2447 260° West 410 472 40,000  Level Denver Center
Fri 12:53:41 PM 39.1167 -101.4047 261° West 405 466 40,000  Level Denver Center
Fri 12:54:43 PM 39.1006 -101.5428 261° West 404 465 40,000  Level Denver Center
Fri 12:55:45 PM 39.0794 -101.7039 260° West 406 467 40,000  Level Denver Center
Fri 12:56:47 PM 39.0614 -101.8375 260° West 407 468 40,000  Level Denver Center
Fri 12:57:49 PM 39.0403 -102.0011 261° West 414 476 40,000  Level Denver Center
Fri 12:58:51 PM 39.0222 -102.1417 261° West 418 481 40,000  Level Denver Center
Fri 12:59:53 PM 39.0008 -102.3039 260° West 414 476 40,000  Level Denver Center
Fri 01:00:55 PM 38.9808 -102.4458 260° West 420 483 40,000  Level Denver Center
Fri 01:01:57 PM 38.9597 -102.6072 261° West 413 475 40,000  Level Denver Center
Fri 01:02:59 PM 38.9394 -102.7572 260° West 410 472 40,000  Level Denver Center
Fri 01:04:01 PM 38.9194 -102.9056 260° West 416 479 40,000  Level Denver Center
Fri 01:05:03 PM 38.8972 -103.0531 259° West 417 480 40,000  Level Denver Center
Fri 01:06:05 PM 38.8786 -103.1981 261° West 409 471 40,000  Level Denver Center
Fri 01:07:07 PM 38.8581 -103.3433 260° West 408 470 40,000  Level Denver Center
Fri 01:08:09 PM 38.8364 -103.4919 259° West 411 473 40,000  Level Denver Center
Fri 01:09:11 PM 38.8128 -103.6511 259° West 408 470 40,000  Level Denver Center
Fri 01:10:14 PM 38.7914 -103.7822 258° West 397 457 40,000  Level Denver Center
Fri 01:11:16 PM 38.7656 -103.9356 258° West 396 456 40,000 -48 Level Denver Center
Fri 01:12:18 PM 38.7431 -104.0664 258° West 396 456 39,900  Descending Denver Center
Fri 01:13:20 PM 38.7178 -104.2161 258° West 403 464 40,000 48 Climbing Denver Center
Fri 01:14:22 PM 38.6942 -104.3569 258° West 401 461 40,000  Level Denver Center
Fri 01:15:24 PM 38.6694 -104.4964 257° West 397 457 40,000  Level Denver Center
Fri 01:16:26 PM 38.6447 -104.6361 257° West 399 459 40,000  Level Denver Center
Fri 01:17:28 PM 38.6200 -104.7794 258° West 404 465 40,000  Level Denver Center
Fri 01:18:30 PM 38.5894 -104.9522 257° West 417 480 40,000  Level Denver Center
Fri 01:19:32 PM 38.5639 -105.0961 257° West 412 474 40,000  Level Denver Center
Fri 01:20:34 PM 38.5392 -105.2328 257° West 395 455 40,000  Level Denver Center
Fri 01:21:36 PM 38.5142 -105.3706 257° West 394 453 40,000  Level Denver Center
Fri 01:22:38 PM 38.4900 -105.5083 257° West 395 455 40,000  Level Denver Center
Fri 01:23:40 PM 38.4642 -105.6464 257° West 395 455 40,000  Level Denver Center
Fri 01:24:42 PM 38.4394 -105.7850 257° West 398 458 40,000  Level Denver Center
Fri 01:25:44 PM 38.4117 -105.9281 256° West 405 466 40,000  Level Denver Center
Fri 01:26:46 PM 38.3831 -106.0808 257° West 399 459 40,000  Level Denver Center
Fri 01:27:48 PM 38.3592 -106.2075 257° West 401 461 40,000  Level Denver Center
Fri 01:28:50 PM 38.3331 -106.3464 257° West 403 464 40,000  Level Denver Center
Fri 01:29:52 PM 38.3061 -106.4864 256° West 404 465 40,000  Level Denver Center
Fri 01:30:54 PM 38.2733 -106.6528 256° West 403 464 40,000  Level Denver Center
Fri 01:31:56 PM 38.2481 -106.7861 256° West 407 468 40,000  Level Denver Center
Fri 01:32:58 PM 38.2189 -106.9328 256° West 405 466 40,000  Level Denver Center
Fri 01:34:00 PM 38.1914 -107.0733 256° West 408 470 40,000  Level Denver Center
Fri 01:35:02 PM 38.1597 -107.2353 256° West 413 475 40,000  Level Denver Center
Fri 01:36:04 PM 38.1322 -107.3706 256° West 414 476 40,000  Level Denver Center
Fri 01:37:06 PM 38.1000 -107.5283 255° West 414 476 40,000  Level Denver Center
Fri 01:38:08 PM 38.0719 -107.6697 256° West 416 479 40,000  Level Denver Center
Fri 01:39:10 PM 38.0444 -107.8061 256° West 419 482 40,000  Level Denver Center
Fri 01:40:12 PM 38.0125 -107.9644 256° West 415 478 40,000  Level Denver Center
Fri 01:41:14 PM 37.9839 -108.0997 255° West 416 479 40,000  Level Denver Center
Fri 01:42:16 PM 37.9517 -108.2542 255° West 410 472 40,000  Level Denver Center
Fri 01:43:18 PM 37.9239 -108.3881 255° West 409 471 40,000  Level Denver Center
Fri 01:44:20 PM 37.8919 -108.5433 255° West 410 472 40,000  Level Denver Center
Fri 01:45:22 PM 37.8636 -108.6747 255° West 407 468 40,000  Level Denver Center
Fri 01:46:24 PM 37.8350 -108.8075 255° West 408 470 40,000  Level Denver Center
Fri 01:47:25 PM 37.8017 -108.9594 255° West 403 464 40,000  Level Denver Center
Fri 01:48:27 PM 37.7694 -109.0892 253° West 404 465 40,000  Level Denver Center
Fri 01:49:29 PM 37.7317 -109.2431 253° West 409 471 40,000 -484 Level Denver Center
Fri 01:50:31 PM 37.6983 -109.3750 252° West 412 474 39,000 -968 Descending Denver Center
Fri 01:51:33 PM 37.6583 -109.5333 252° West 421 484 38,000 -532 Descending Denver Center
Fri 01:52:35 PM 37.6250 -109.6656 252° West 416 479 37,900 -629 Descending Denver Center
Fri 01:53:37 PM 37.5858 -109.8225 253° West 419 482 36,700 -919 Descending Denver Center
Fri 01:54:39 PM 37.5497 -109.9644 252° West 441 507 36,000 -339 Descending Denver Center
Fri 01:55:41 PM 37.5081 -110.1244 252° West 432 497 36,000  Level Denver Center
Fri 01:56:43 PM 37.4742 -110.2536 252° West 429 494 36,000  Level Denver Center
Fri 01:57:45 PM 37.4381 -110.3981 253° West 431 496 36,000  Level Denver Center
Fri 01:58:47 PM 37.3917 -110.5711 251° West 435 501 36,000  Level Denver Center
Fri 01:59:49 PM 37.3531 -110.7167 252° West 438 504 36,000 -194 Level Denver Center
Fri 02:00:51 PM 37.3156 -110.8619 252° West 437 503 35,600 -677 Descending Denver Center
Fri 02:01:53 PM 37.2769 -111.0058 251° West 436 502 34,600 -774 Descending Denver Center
Fri 02:02:55 PM 37.2383 -111.1489 251° West 433 498 34,000 -290 Descending Denver Center
Fri 02:03:57 PM 37.2011 -111.2908 252° West 430 495 34,000  Level Denver Center
Fri 02:04:59 PM 37.1547 -111.4636 251° West 435 501 34,000 -629 Level Denver Center
Fri 02:06:01 PM 37.1175 -111.6058 252° West 432 497 32,700 -1,415 Descending Denver Center
Fri 02:07:02 PM 37.0806 -111.7508 252° West 434 499 31,100 -1,268 Descending Denver Center
Fri 02:08:04 PM 37.0500 -111.9003 256° West 441 507 30,100 -528 Descending Denver Center
Fri 02:09:07 PM 37.0183 -112.0489 255° West 441 507 30,000 -52 Descending Denver Center
Fri 02:09:59 PM 36.9861 -112.1983 255° West 441 507 30,000  Level Los Angeles Center
Fri 02:11:01 PM 36.9544 -112.3469 255° West 442 509 30,000  Level Los Angeles Center
Fri 02:12:04 PM 36.9228 -112.4958 255° West 442 509 30,000 -528 Level Los Angeles Center
Fri 02:13:06 PM 36.8917 -112.6439 255° West 441 507 28,900 -968 Descending Los Angeles Center
Fri 02:14:08 PM 36.8614 -112.7886 255° West 433 498 28,000 -435 Descending Los Angeles Center
Fri 02:15:10 PM 36.8292 -112.9331 254° West 431 496 28,000  Level Los Angeles Center
Fri 02:16:12 PM 36.7981 -113.0800 255° West 435 501 28,000  Level Los Angeles Center
Fri 02:17:14 PM 36.7594 -113.2556 255° West 436 502 28,000  Level Los Angeles Center
Fri 02:18:16 PM 36.7272 -113.4022 255° West 437 503 28,000  Level Los Angeles Center
Fri 02:19:18 PM 36.6964 -113.5478 255° West 436 502 28,000 -242 Level Los Angeles Center
Fri 02:20:20 PM 36.6628 -113.6928 254° West 436 502 27,500 -1,548 Descending Los Angeles Center
Fri 02:21:22 PM 36.6308 -113.8347 254° West 428 493 24,800 -2,544 Descending Los Angeles Center
Fri 02:22:25 PM 36.6006 -113.9744 255° West 420 483 22,200 -2,688 Descending Los Angeles Center
Fri 02:23:27 PM 36.5564 -114.1292 250° West 398 458 19,200 -2,733 Descending Los Angeles Center
Fri 02:23:55 PM 36.5292 -114.1844 239° Southwest 399 459 18,100 -1,839 Descending Los Angeles Center
Fri 02:24:29 PM 36.5100 -114.2264 240° Southwest 378 435 17,300 -1,875 Descending Los Angeles Center
Fri 02:25:31 PM 36.4617 -114.3333 241° Southwest 359 413 15,100 -2,390 Descending Los Angeles Center
Fri 02:26:27 PM 36.4108 -114.4394 239° Southwest 318 366 12,600 -2,304 Descending Los Angeles Center
Fri 02:27:23 PM 36.3664 -114.5217 236° Southwest 305 351 10,800 -1,759 Descending Los Angeles Center
Fri 02:28:23 PM 36.3239 -114.6028 237° Southwest 287 330 9,200 -1,535 Descending Los Angeles Center
Fri 02:29:32 PM 36.2747 -114.6942 236° Southwest 280 322 7,500 -1,078 Descending Los Angeles Center
Fri 02:30:31 PM 36.2317 -114.7728 236° Southwest 277 319 6,900 -400 Descending Los Angeles Center
Fri 02:31:32 PM 36.1978 -114.8347 236° Southwest 214 246 6,700 -466 Descending Los Angeles Center
Fri 02:32:27 PM 36.1703 -114.8867 237° Southwest 192 221 6,000 -649 Descending Los Angeles Center
Fri 02:32:46 PM 36.1617 -114.9008 233° Southwest 193 222 5,900 -909 Descending Los Angeles Center
Fri 02:33:33 PM 36.1383 -114.9481 239° Southwest 188 216 5,000 -892 Descending Los Angeles Center
Fri 02:34:00 PM 36.1347 -114.9553 238° Southwest 188 216 4,800 -764 Descending Los Angeles Center
Fri 02:34:28 PM 36.1344 -114.9997 270° West 180 207 4,300 -774 Descending Los Angeles Center
Fri 02:35:02 PM 36.1350 -115.0289 271° West 182 209 4,000 -689 Descending Los Angeles Center
Fri 02:35:29 PM 36.1347 -115.0608 269° West 180 207 3,600 -484 Descending Los Angeles Center
Fri 02:36:04 PM 36.1367 -115.0900 275° West 180 207 3,500 -551 Descending Los Angeles Center
Fri 02:37:07 PM 36.1239 -115.1411 253° West 169 194 2,700 -672 Descending Los Angeles Center
Fri 02:38:09 PM 36.0869 -115.1633 206° Southwest 160 184 2,100 -581 Descending Los Angeles Center

Login

Don't have an account? Register now (free) for customized features, flight alerts, and more!